createdAt,value
2019-03-28T00:01:48.536Z,8.60
2019-03-28T00:04:38.835Z,8.70
2019-03-28T00:07:26.742Z,8.93
2019-03-28T00:10:13.840Z,8.40
2019-03-28T00:13:00.672Z,10.82
2019-03-28T00:18:57.390Z,8.47
2019-03-28T00:21:42.301Z,11.55
2019-03-28T00:24:29.429Z,11.00
2019-03-28T00:27:17.653Z,9.27
2019-03-28T00:30:08.052Z,8.30
2019-03-28T00:32:54.847Z,9.00
2019-03-28T00:35:41.976Z,8.60
2019-03-28T00:38:30.100Z,9.63
2019-03-28T00:41:16.935Z,10.20
2019-03-28T00:44:04.028Z,9.07
2019-03-28T00:46:54.627Z,10.17
2019-03-28T00:49:42.273Z,10.80
2019-03-28T00:52:29.250Z,10.17
2019-03-28T00:55:16.086Z,10.53
2019-03-28T00:58:02.809Z,10.30
2019-03-28T01:00:50.443Z,10.03
2019-03-28T01:03:37.251Z,11.17
2019-03-28T01:06:23.910Z,11.03
2019-03-28T01:09:10.724Z,10.53
2019-03-28T01:11:57.812Z,10.03
2019-03-28T01:14:45.693Z,11.23
2019-03-28T01:17:33.220Z,11.13
2019-03-28T01:20:20.766Z,11.43
2019-03-28T01:23:08.247Z,10.87
2019-03-28T01:25:55.083Z,12.47
2019-03-28T01:28:41.895Z,11.93
2019-03-28T01:31:30.155Z,12.53
2019-03-28T01:34:17.355Z,11.33
2019-03-28T01:37:05.304Z,11.43
2019-03-28T01:42:58.691Z,11.50
2019-03-28T01:48:52.432Z,11.73
2019-03-28T01:51:40.270Z,10.93
2019-03-28T01:54:27.200Z,11.23
2019-03-28T01:57:14.580Z,11.03
2019-03-28T02:00:03.184Z,11.40
2019-03-28T02:05:57.746Z,10.73
2019-03-28T02:09:17.950Z,10.83
2019-03-28T02:12:05.285Z,15.10
2019-03-28T02:14:52.479Z,12.57
2019-03-28T02:17:39.285Z,12.07
2019-03-28T02:20:26.580Z,11.67
2019-03-28T02:23:17.052Z,11.70
2019-03-28T02:26:04.399Z,11.40
2019-03-28T02:28:51.515Z,12.43
2019-03-28T02:31:42.952Z,15.70
2019-03-28T02:34:29.790Z,12.57
2019-03-28T02:37:16.677Z,12.00
2019-03-28T02:40:04.697Z,11.13
2019-03-28T02:42:53.520Z,11.67
2019-03-28T02:45:41.279Z,11.70
2019-03-28T02:48:28.576Z,12.07
2019-03-28T02:51:15.735Z,11.67
2019-03-28T02:54:02.778Z,11.17
2019-03-28T02:56:50.358Z,14.00
2019-03-28T02:59:38.315Z,14.50
2019-03-28T03:02:25.025Z,11.97
2019-03-28T03:05:12.936Z,11.20
2019-03-28T03:11:06.223Z,13.95
2019-03-28T03:13:53.665Z,11.97
2019-03-28T03:16:40.464Z,11.20
2019-03-28T03:22:42.509Z,14.52
2019-03-28T03:25:30.348Z,13.93
2019-03-28T03:28:17.451Z,12.13
2019-03-28T03:31:04.367Z,11.30
2019-03-28T03:33:51.709Z,10.90
2019-03-28T03:36:38.602Z,10.57
2019-03-28T03:39:25.887Z,10.80
2019-03-28T03:42:12.654Z,11.37
2019-03-28T03:45:00.614Z,11.07
2019-03-28T03:47:48.528Z,11.73
2019-03-28T03:50:35.731Z,11.83
2019-03-28T03:56:39.944Z,11.63
2019-03-28T03:59:26.755Z,12.53
2019-03-28T04:02:14.816Z,12.53
2019-03-28T04:08:22.342Z,13.47
2019-03-28T04:11:10.020Z,11.90
2019-03-28T04:13:57.442Z,12.10
2019-03-28T04:16:44.617Z,12.50
2019-03-28T04:19:32.067Z,11.87
2019-03-28T04:35:28.171Z,15.38
2019-03-28T04:48:07.664Z,12.90
2019-03-28T04:54:01.361Z,13.23
2019-03-28T04:56:48.306Z,13.57
2019-03-28T04:59:36.226Z,18.05
2019-03-28T05:02:23.048Z,14.40
2019-03-28T05:05:10.410Z,18.08
2019-03-28T05:07:58.058Z,16.37
2019-03-28T05:10:44.952Z,18.50
2019-03-28T05:13:41.618Z,19.27
2019-03-28T05:16:28.619Z,15.60
2019-03-28T05:22:22.427Z,16.90
2019-03-28T05:25:09.226Z,16.37
2019-03-28T05:27:56.222Z,16.53
2019-03-28T05:30:43.852Z,21.52
2019-03-28T05:36:36.790Z,17.00
2019-03-28T05:39:23.930Z,15.70
2019-03-28T05:42:10.977Z,15.90
2019-03-28T05:44:58.280Z,16.00
2019-03-28T05:47:45.513Z,14.83
2019-03-28T05:56:44.370Z,14.87
2019-03-28T05:59:31.158Z,15.00
2019-03-28T06:02:32.160Z,15.47
2019-03-28T06:05:18.842Z,14.90
2019-03-28T06:08:06.804Z,14.63
2019-03-28T06:10:54.102Z,15.10
2019-03-28T06:19:52.542Z,14.33
2019-03-28T06:22:39.916Z,13.93
2019-03-28T06:40:58.651Z,13.70
2019-03-28T06:43:45.365Z,13.27
2019-03-28T06:46:32.270Z,16.42
2019-03-28T06:49:19.283Z,16.02
2019-03-28T06:52:07.726Z,13.83
2019-03-28T06:54:56.420Z,13.27
2019-03-28T07:07:04.434Z,15.07
2019-03-28T07:16:05.241Z,12.70
2019-03-28T07:18:53.405Z,12.20
2019-03-28T07:24:47.604Z,11.60
2019-03-28T07:27:34.715Z,11.50
2019-03-28T07:30:21.864Z,11.63
2019-03-28T07:33:09.077Z,12.83
2019-03-28T07:35:56.349Z,11.40
2019-03-28T07:51:07.583Z,11.63
2019-03-28T08:00:12.756Z,11.37
2019-03-28T08:02:59.452Z,9.70
2019-03-28T08:05:46.365Z,9.93
2019-03-28T08:08:38.633Z,11.00
2019-03-28T08:11:20.746Z,10.13
2019-03-28T08:14:08.303Z,9.68
2019-03-28T08:16:56.562Z,8.85
2019-03-28T08:19:43.680Z,9.65
2019-03-28T08:22:30.882Z,8.95
2019-03-28T08:28:24.120Z,8.20
2019-03-28T08:31:10.875Z,10.07
2019-03-28T08:34:12.422Z,9.70
2019-03-28T08:58:50.392Z,9.07
2019-03-28T09:01:37.913Z,9.80
2019-03-28T09:04:24.938Z,10.07
2019-03-28T09:07:12.113Z,10.55
2019-03-28T09:16:12.269Z,12.60
2019-03-28T09:18:59.544Z,13.32
2019-03-28T09:28:03.320Z,10.85
2019-03-28T09:30:50.506Z,9.68
2019-03-28T09:36:53.636Z,10.35
2019-03-28T09:39:40.692Z,9.48
2019-03-28T09:42:27.853Z,9.68
2019-03-28T09:45:14.943Z,9.60
2019-03-28T09:48:01.884Z,8.60
2019-03-28T09:50:48.486Z,8.70
2019-03-28T09:53:36.420Z,8.77
2019-03-28T09:56:23.643Z,9.63
2019-03-28T09:59:10.690Z,8.32
2019-03-28T10:05:09.717Z,9.25
2019-03-28T10:07:56.697Z,9.88
2019-03-28T10:10:44.102Z,8.23
2019-03-28T10:16:40.232Z,8.82
2019-03-28T10:19:24.791Z,7.80
2019-03-28T10:22:12.115Z,7.40
2019-03-28T10:28:06.190Z,8.25
2019-03-28T10:30:53.707Z,7.25
2019-03-28T10:33:40.497Z,8.23
2019-03-28T10:36:28.007Z,7.82
2019-03-28T10:39:14.898Z,8.43
2019-03-28T10:42:02.250Z,8.02
2019-03-28T10:47:55.362Z,7.87
2019-03-28T10:50:45.619Z,8.82
2019-03-28T10:53:30.274Z,8.23
2019-03-28T10:56:21.886Z,8.73
2019-03-28T10:59:03.449Z,9.85
2019-03-28T11:01:51.185Z,8.57
2019-03-28T11:04:37.558Z,8.05
2019-03-28T11:07:25.137Z,8.73
2019-03-28T11:10:11.905Z,9.13
2019-03-28T11:12:59.112Z,8.48
2019-03-28T11:15:46.335Z,8.73
2019-03-28T11:18:33.094Z,9.20
2019-03-28T11:21:20.078Z,9.00
2019-03-28T11:24:07.770Z,8.75
2019-03-28T11:26:54.891Z,9.30
2019-03-28T11:29:41.958Z,8.95
2019-03-28T11:32:28.747Z,8.80
2019-03-28T11:35:16.289Z,7.97
2019-03-28T11:38:03.678Z,9.55
2019-03-28T11:40:50.810Z,9.02
2019-03-28T11:43:39.207Z,8.77
2019-03-28T11:49:34.586Z,8.20
2019-03-28T11:52:21.693Z,8.38
2019-03-28T11:55:08.627Z,7.60
2019-03-28T11:57:56.617Z,8.25
2019-03-28T12:00:42.955Z,7.35
2019-03-28T12:03:29.736Z,7.60
2019-03-28T12:06:17.202Z,8.40
2019-03-28T12:09:05.222Z,6.50
2019-03-28T12:11:53.051Z,6.20
2019-03-28T12:14:38.860Z,5.78
2019-03-28T12:17:25.756Z,6.03
2019-03-28T12:20:13.213Z,5.68
2019-03-28T12:23:00.710Z,5.82
2019-03-28T12:25:47.624Z,6.68
2019-03-28T12:28:34.817Z,6.22
2019-03-28T12:31:21.957Z,5.18
2019-03-28T12:34:09.102Z,5.43
2019-03-28T12:36:56.485Z,6.03
2019-03-28T12:39:43.188Z,5.75
2019-03-28T12:42:31.225Z,5.20
2019-03-28T12:45:18.754Z,5.45
2019-03-28T12:48:05.691Z,6.05
2019-03-28T12:50:58.727Z,5.87
2019-03-28T12:53:39.415Z,7.00
2019-03-28T12:56:26.506Z,6.85
2019-03-28T12:59:13.241Z,7.12
2019-03-28T13:02:00.465Z,6.35
2019-03-28T13:04:48.688Z,5.90
2019-03-28T13:07:36.640Z,5.87
2019-03-28T13:10:23.752Z,5.78
2019-03-28T13:13:10.467Z,5.90
2019-03-28T13:15:57.227Z,5.65
2019-03-28T13:18:46.441Z,5.87
2019-03-28T13:21:33.080Z,7.22
2019-03-28T13:24:20.577Z,6.30
2019-03-28T13:30:14.800Z,6.55
2019-03-28T13:33:01.909Z,6.30
2019-03-28T13:35:49.340Z,6.82
2019-03-28T13:38:36.435Z,6.32
2019-03-28T13:41:24.240Z,6.47
2019-03-28T13:44:12.364Z,7.90
2019-03-28T13:46:59.293Z,7.37
2019-03-28T13:49:46.670Z,6.82
2019-03-28T13:52:34.156Z,7.05
2019-03-28T13:55:21.479Z,6.72
2019-03-28T13:58:08.396Z,8.10
2019-03-28T14:04:20.933Z,6.65
2019-03-28T14:07:07.935Z,6.05
2019-03-28T14:09:54.711Z,4.95
2019-03-28T14:12:41.554Z,6.40
2019-03-28T14:15:28.921Z,5.53
2019-03-28T14:18:16.984Z,5.95
2019-03-28T14:21:04.101Z,6.65
2019-03-28T14:23:51.291Z,6.78
2019-03-28T14:26:53.408Z,6.03
2019-03-28T14:29:40.614Z,5.75
2019-03-28T14:32:28.632Z,6.22
2019-03-28T14:35:15.481Z,6.40
2019-03-28T14:38:02.792Z,6.05
2019-03-28T14:40:50.087Z,6.05
2019-03-28T14:43:37.010Z,5.57
2019-03-28T14:46:24.501Z,5.00
2019-03-28T14:49:11.774Z,5.53
2019-03-28T14:51:58.882Z,6.43
2019-03-28T14:54:45.688Z,5.97
2019-03-28T14:57:32.893Z,11.35
2019-03-28T15:00:24.000Z,8.57
2019-03-28T15:03:24.555Z,7.20
2019-03-28T15:09:05.513Z,4.65
2019-03-28T15:11:52.266Z,4.78
2019-03-28T15:14:39.295Z,5.05
2019-03-28T15:17:26.360Z,6.07
2019-03-28T15:20:13.655Z,8.40
2019-03-28T15:23:00.304Z,8.00
2019-03-28T15:25:47.614Z,5.70
2019-03-28T15:28:34.597Z,5.22
2019-03-28T15:31:22.770Z,4.80
2019-03-28T15:34:09.992Z,5.20
2019-03-28T15:43:10.656Z,5.90
2019-03-28T15:45:59.566Z,6.10
2019-03-28T15:48:46.908Z,6.80
2019-03-28T15:51:33.972Z,6.03
2019-03-28T15:54:21.370Z,4.97
2019-03-28T15:57:08.982Z,5.55
2019-03-28T15:59:55.888Z,5.62
2019-03-28T16:02:43.114Z,6.75
2019-03-28T16:05:30.555Z,5.95
2019-03-28T16:08:17.766Z,6.37
2019-03-28T16:11:04.583Z,11.73
2019-03-28T16:13:51.798Z,19.00
2019-03-28T16:16:38.710Z,9.13
2019-03-28T16:19:25.637Z,8.00
2019-03-28T16:22:15.537Z,7.70
2019-03-28T16:24:59.921Z,6.25
2019-03-28T16:27:46.681Z,6.68
2019-03-28T16:30:37.122Z,7.00
2019-03-28T16:33:24.775Z,7.95
2019-03-28T16:36:12.123Z,7.72
2019-03-28T16:38:59.729Z,7.30
2019-03-28T16:41:46.775Z,6.62
2019-03-28T16:44:41.778Z,7.30
2019-03-28T16:47:28.506Z,6.62
2019-03-28T16:50:15.291Z,6.90
2019-03-28T16:53:02.687Z,7.28
2019-03-28T16:58:55.778Z,7.65
2019-03-28T17:01:43.199Z,7.60
2019-03-28T17:04:30.211Z,7.03
2019-03-28T17:07:17.735Z,7.32
2019-03-28T17:10:08.132Z,7.10
2019-03-28T17:16:02.603Z,6.30
2019-03-28T17:18:49.289Z,6.47
2019-03-28T17:21:36.839Z,8.18
2019-03-28T17:24:23.684Z,7.40
2019-03-28T17:27:10.481Z,7.47
2019-03-28T17:29:57.397Z,6.75
2019-03-28T17:32:44.391Z,7.72
2019-03-28T17:35:30.995Z,6.85
2019-03-28T17:38:17.644Z,8.07
2019-03-28T17:41:06.666Z,6.70
2019-03-28T17:43:52.374Z,6.80
2019-03-28T17:46:39.179Z,6.78
2019-03-28T17:49:26.604Z,8.90
2019-03-28T17:52:13.545Z,10.15
2019-03-28T17:55:01.352Z,9.95
2019-03-28T17:57:49.068Z,7.78
2019-03-28T18:00:35.913Z,8.50
2019-03-28T18:03:31.046Z,8.23
2019-03-28T18:06:09.920Z,8.18
2019-03-28T18:08:56.884Z,8.13
2019-03-28T18:11:44.950Z,7.72
2019-03-28T18:14:31.567Z,7.50
2019-03-28T18:17:18.578Z,9.90
2019-03-28T18:20:05.723Z,9.80
2019-03-28T18:22:52.752Z,8.45
2019-03-28T18:28:47.098Z,8.35
2019-03-28T18:31:49.438Z,8.13
2019-03-28T18:34:22.466Z,8.30
2019-03-28T18:37:09.511Z,7.57
2019-03-28T18:39:56.710Z,8.40
2019-03-28T18:42:44.011Z,8.20
2019-03-28T18:45:33.892Z,8.52
2019-03-28T18:48:29.392Z,12.40
2019-03-28T18:51:06.501Z,10.80
2019-03-28T18:53:53.329Z,9.38
2019-03-28T18:56:49.868Z,9.32
2019-03-28T18:59:36.794Z,9.32
2019-03-28T19:02:23.994Z,8.80
2019-03-28T19:11:41.053Z,8.88
2019-03-28T19:14:34.864Z,8.35
2019-03-28T19:17:22.814Z,8.40
2019-03-28T19:20:12.732Z,8.02
2019-03-28T19:22:58.465Z,8.25
2019-03-28T19:28:56.775Z,8.35
2019-03-28T19:31:44.189Z,8.15
2019-03-28T19:34:31.054Z,8.73
2019-03-28T19:37:18.221Z,10.82
2019-03-28T19:40:08.196Z,8.60
2019-03-28T19:42:56.137Z,10.88
2019-03-28T19:45:43.658Z,8.60
2019-03-28T19:48:30.464Z,7.68
2019-03-28T19:51:20.127Z,7.43
2019-03-28T19:54:07.977Z,7.75
2019-03-28T19:56:57.241Z,7.32
2019-03-28T19:59:42.621Z,6.07
2019-03-28T20:02:30.264Z,9.35
2019-03-28T20:05:17.938Z,8.60
2019-03-28T20:08:15.398Z,7.30
2019-03-28T20:10:51.916Z,7.67
2019-03-28T20:13:39.660Z,8.57
2019-03-28T20:16:27.477Z,6.63
2019-03-28T20:19:17.725Z,8.60
2019-03-28T20:22:02.702Z,8.05
2019-03-28T20:24:49.780Z,8.23
2019-03-28T20:27:36.967Z,7.28
2019-03-28T20:30:23.887Z,9.60
2019-03-28T20:33:11.721Z,7.72
2019-03-28T20:36:18.898Z,8.77
2019-03-28T20:41:50.850Z,7.47
2019-03-28T20:48:56.679Z,9.32
2019-03-28T20:51:43.818Z,10.48
2019-03-28T20:54:30.834Z,8.15
2019-03-28T20:57:17.641Z,9.07
2019-03-28T21:00:08.643Z,7.70
2019-03-28T21:02:54.843Z,8.70
2019-03-28T21:08:47.807Z,8.68
2019-03-28T21:14:44.259Z,14.27
2019-03-28T21:17:32.272Z,9.90
2019-03-28T21:20:18.049Z,9.27
2019-03-28T21:23:05.784Z,9.07
2019-03-28T21:25:53.024Z,9.15
2019-03-28T21:28:56.029Z,9.90
2019-03-28T21:31:49.670Z,9.77
2019-03-28T21:34:29.814Z,9.55
2019-03-28T21:40:22.938Z,11.00
2019-03-28T21:43:09.813Z,9.77
2019-03-28T21:45:57.540Z,11.23
2019-03-28T21:51:50.220Z,12.63
2019-03-28T21:54:38.964Z,9.55
2019-03-28T21:57:25.642Z,8.07
2019-03-28T22:00:12.882Z,7.35
2019-03-28T22:02:59.574Z,7.07
2019-03-28T22:05:46.815Z,9.02
2019-03-28T22:08:33.499Z,11.68
2019-03-28T22:11:23.418Z,9.40
2019-03-28T22:14:10.211Z,8.85
2019-03-28T22:16:57.303Z,9.07
2019-03-28T22:19:44.845Z,10.88
2019-03-28T22:22:32.660Z,10.77
2019-03-28T22:25:19.399Z,11.25
2019-03-28T22:31:19.700Z,11.10
2019-03-28T22:34:07.142Z,12.27
2019-03-28T22:36:57.444Z,10.35
2019-03-28T22:39:40.765Z,15.32
2019-03-28T22:42:27.894Z,12.50
2019-03-28T22:45:15.777Z,10.38
2019-03-28T22:48:10.650Z,13.88
2019-03-28T22:50:50.358Z,12.93
2019-03-28T22:53:37.488Z,14.38
2019-03-28T22:56:24.822Z,13.00
2019-03-28T22:59:11.508Z,12.02
2019-03-28T23:01:58.215Z,11.75
2019-03-28T23:04:46.156Z,10.88
2019-03-28T23:10:40.441Z,9.07
2019-03-28T23:13:27.487Z,12.37
2019-03-28T23:16:14.070Z,9.40
2019-03-28T23:19:00.790Z,12.48
2019-03-28T23:21:47.437Z,8.55
2019-03-28T23:24:34.496Z,9.40
2019-03-28T23:30:28.639Z,9.23
2019-03-28T23:33:14.683Z,9.40
2019-03-28T23:36:01.924Z,7.57
2019-03-28T23:38:50.041Z,9.07
2019-03-28T23:41:37.368Z,9.63
2019-03-28T23:44:24.456Z,9.65
2019-03-28T23:47:11.299Z,12.63
2019-03-28T23:49:58.509Z,15.17
2019-03-28T23:52:46.578Z,10.65
2019-03-28T23:55:33.628Z,9.20
2019-03-28T23:58:21.042Z,10.20
